Time;durP1;ratioP1;P1;durP2;ratioP2;P2;SDS_P1;SDS_P2;PMS_P1;PMS_P2;Temp;Humidity;BMP_temperature;BMP_pressure;BME280_temperature;BME280_humidity;BME280_pressure;Samples;Min_cycle;Max_cycle;Signal;HPM_P1;HPM_P2
2022/11/21 00:01:36;;;;;;;8.80;7.43;;;5.20;99.90;;;;;;5052836;28;20443;-65
2022/11/21 00:04:04;;;;;;;8.83;6.93;;;5.20;99.90;;;;;;5047190;28;20577;-66
2022/11/21 00:06:31;;;;;;;8.67;6.40;;;5.20;99.90;;;;;;5038151;28;20817;-65
2022/11/21 00:09:01;;;;;;;9.53;6.80;;;5.20;99.90;;;;;;5052820;28;20559;-66
2022/11/21 00:11:29;;;;;;;11.20;8.00;;;5.10;99.90;;;;;;5058543;28;20466;-67
2022/11/21 00:13:56;;;;;;;12.53;9.00;;;5.00;99.90;;;;;;5059173;28;20803;-67
2022/11/21 00:16:25;;;;;;;14.00;10.67;;;4.90;99.90;;;;;;5059189;28;20938;-66
2022/11/21 00:18:52;;;;;;;15.63;11.20;;;4.90;99.90;;;;;;5048741;28;20434;-66
2022/11/21 00:21:20;;;;;;;18.13;12.20;;;4.80;99.90;;;;;;5039305;28;20558;-66
2022/11/21 00:23:48;;;;;;;21.10;14.33;;;4.80;99.90;;;;;;5039044;28;20470;-66
2022/11/21 00:26:16;;;;;;;19.67;14.77;;;4.80;99.90;;;;;;5038887;28;20470;-64
2022/11/21 00:28:47;;;;;;;24.37;15.53;;;4.70;99.90;;;;;;5043388;28;20488;-65
2022/11/21 00:31:25;;;;;;;25.30;15.03;;;4.70;99.90;;;;;;5046518;28;20491;-65
2022/11/21 00:33:53;;;;;;;21.80;14.20;;;4.70;99.90;;;;;;5039498;28;20469;-67
2022/11/21 00:36:21;;;;;;;21.67;13.57;;;4.70;99.90;;;;;;5038967;28;20533;-66
2022/11/21 00:38:48;;;;;;;26.50;16.33;;;4.70;99.90;;;;;;5039143;28;20721;-67
2022/11/21 00:41:15;;;;;;;28.33;16.70;;;4.70;99.90;;;;;;5046284;28;20909;-67
2022/11/21 00:43:42;;;;;;;26.03;17.43;;;4.60;99.90;;;;;;5058395;28;20490;-66
2022/11/21 00:46:10;;;;;;;26.90;17.60;;;4.50;99.90;;;;;;5058366;28;20463;-66
2022/11/21 00:48:37;;;;;;;25.50;18.17;;;4.40;99.90;;;;;;5058682;28;20489;-66
2022/11/21 00:51:08;;;;;;;31.03;17.63;;;4.30;99.90;;;;;;5055673;28;20459;-66
2022/11/21 00:53:36;;;;;;;32.67;19.07;;;4.40;99.90;;;;;;5039065;28;20494;-66
2022/11/21 00:56:04;;;;;;;30.80;17.77;;;4.40;99.90;;;;;;5038474;28;20537;-66
2022/11/21 00:58:34;;;;;;;27.93;17.80;;;4.40;99.90;;;;;;5038582;28;20459;-67
2022/11/21 01:01:06;;;;;;;31.07;18.60;;;4.30;99.90;;;;;;5038588;28;20442;-66
2022/11/21 01:03:34;;;;;;;33.80;20.60;;;4.30;99.90;;;;;;5056897;28;20486;-66
2022/11/21 01:06:04;;;;;;;28.77;17.97;;;4.30;99.90;;;;;;5056661;28;20462;-66
2022/11/21 01:08:35;;;;;;;29.87;19.80;;;4.30;99.90;;;;;;5058208;28;20468;-66
2022/11/21 01:11:07;;;;;;;31.67;17.57;;;4.40;99.90;;;;;;5058389;28;20753;-66
2022/11/21 01:13:35;;;;;;;30.07;19.50;;;4.40;99.90;;;;;;5041728;28;20459;-66
2022/11/21 01:16:06;;;;;;;33.60;18.87;;;4.40;99.90;;;;;;5038015;28;20542;-66
2022/11/21 01:18:33;;;;;;;34.70;20.03;;;4.40;99.90;;;;;;5038351;28;20469;-66
2022/11/21 01:21:04;;;;;;;29.10;18.40;;;4.40;99.90;;;;;;5038043;28;20469;-66
2022/11/21 01:23:34;;;;;;;28.07;18.47;;;4.40;99.90;;;;;;5049430;28;21620;-66
2022/11/21 01:26:04;;;;;;;28.60;19.37;;;4.40;99.90;;;;;;5057789;28;20466;-66
2022/11/21 01:28:34;;;;;;;30.30;18.73;;;4.40;99.90;;;;;;5055658;28;20569;-66
2022/11/21 01:31:05;;;;;;;33.70;20.67;;;4.30;99.90;;;;;;5058231;28;20780;-66
2022/11/21 01:33:34;;;;;;;32.43;18.63;;;4.40;99.90;;;;;;5049173;28;20458;-66
2022/11/21 01:36:07;;;;;;;31.37;19.23;;;4.40;99.90;;;;;;5038542;28;20839;-65
2022/11/21 01:38:37;;;;;;;34.50;20.90;;;4.40;99.90;;;;;;5037831;28;20879;-65
2022/11/21 01:41:04;;;;;;;31.60;19.50;;;4.40;99.90;;;;;;5038100;28;20471;-65
2022/11/21 01:43:31;;;;;;;30.80;19.93;;;4.40;99.90;;;;;;5040951;28;20440;-65
2022/11/21 01:46:00;;;;;;;26.63;18.47;;;4.50;99.90;;;;;;5057291;28;20484;-65
2022/11/21 01:48:34;;;;;;;26.23;16.67;;;4.40;99.90;;;;;;5055576;28;20965;-65
2022/11/21 01:51:07;;;;;;;26.87;18.00;;;4.40;99.90;;;;;;5057548;28;20549;-65
2022/11/21 01:53:38;;;;;;;25.10;15.77;;;4.40;99.90;;;;;;5055840;28;20472;-65
2022/11/21 01:56:09;;;;;;;25.47;17.13;;;4.40;99.90;;;;;;5037516;28;20470;-65
2022/11/21 01:58:38;;;;;;;22.17;15.47;;;4.30;99.90;;;;;;5037182;28;20460;-65
2022/11/21 02:01:06;;;;;;;20.40;13.60;;;4.30;99.90;;;;;;5037437;28;20475;-65
2022/11/21 02:03:37;;;;;;;23.93;14.53;;;4.30;99.90;;;;;;5036630;28;20807;-65
2022/11/21 02:06:09;;;;;;;20.80;13.93;;;4.30;99.90;;;;;;5051094;28;20786;-65
2022/11/21 02:08:39;;;;;;;21.20;14.47;;;4.30;99.90;;;;;;5035482;28;20498;-65
2022/11/21 02:11:15;;;;;;;21.50;14.23;;;4.30;99.90;;;;;;5035980;28;20463;-65
2022/11/21 02:13:45;;;;;;;23.47;13.30;;;4.30;99.90;;;;;;5035480;28;20446;-65
2022/11/21 02:16:12;;;;;;;25.17;13.33;;;4.30;99.90;;;;;;5050404;28;20524;-65
2022/11/21 02:18:39;;;;;;;19.57;12.83;;;4.30;99.90;;;;;;5055433;28;20465;-65
2022/11/21 02:21:19;;;;;;;23.03;14.13;;;4.20;99.90;;;;;;5037366;28;20467;-65
2022/11/21 02:23:55;;;;;;;20.90;14.20;;;4.20;99.90;;;;;;5036853;28;20467;-65
2022/11/21 02:26:23;;;;;;;24.37;14.00;;;4.20;99.90;;;;;;5049141;28;20462;-65
2022/11/21 02:28:51;;;;;;;20.13;12.33;;;4.10;99.90;;;;;;5059018;28;20485;-64
2022/11/21 02:31:18;;;;;;;22.00;14.63;;;4.10;99.90;;;;;;5062004;28;20892;-64
2022/11/21 02:33:45;;;;;;;23.47;14.70;;;4.10;99.90;;;;;;5061753;28;20473;-65
2022/11/21 02:36:42;;;;;;;23.40;14.10;;;4.10;99.90;;;;;;5054356;28;20855;-65
2022/11/21 02:39:14;;;;;;;22.33;14.40;;;4.10;99.90;;;;;;5043447;28;20479;-64
2022/11/21 02:41:50;;;;;;;23.73;14.53;;;4.20;99.90;;;;;;5042948;28;20462;-64
2022/11/21 02:44:24;;;;;;;22.33;15.50;;;4.20;99.90;;;;;;5043589;28;20487;-64
2022/11/21 02:46:57;;;;;;;24.70;15.03;;;4.20;99.90;;;;;;5051661;28;20440;-64
2022/11/21 02:49:31;;;;;;;25.10;16.13;;;4.20;99.90;;;;;;5063738;28;20485;-64
2022/11/21 02:51:58;;;;;;;27.33;15.77;;;4.20;99.90;;;;;;5062857;28;20440;-64
2022/11/21 02:54:26;;;;;;;25.23;15.47;;;4.20;99.90;;;;;;5063480;28;20746;-64
2022/11/21 02:56:55;;;;;;;23.00;14.83;;;4.10;99.90;;;;;;5057717;28;20747;-64
2022/11/21 02:59:22;;;;;;;26.27;16.13;;;4.10;99.90;;;;;;5043866;28;20438;-64
2022/11/21 03:01:52;;;;;;;24.17;14.53;;;4.10;99.90;;;;;;5043364;28;20444;-64
2022/11/21 03:04:19;;;;;;;24.73;13.90;;;4.10;99.90;;;;;;5042748;28;20465;-64
2022/11/21 03:06:47;;;;;;;25.67;15.03;;;4.10;99.90;;;;;;5043585;28;20466;-64
2022/11/21 03:09:14;;;;;;;28.90;14.70;;;4.00;99.90;;;;;;5063853;28;20467;-64
2022/11/21 03:11:41;;;;;;;27.13;15.30;;;4.00;99.90;;;;;;5061337;28;20439;-64
2022/11/21 03:14:10;;;;;;;22.87;14.03;;;4.10;99.90;;;;;;5063380;28;20865;-64
2022/11/21 03:16:40;;;;;;;24.60;15.13;;;4.00;99.90;;;;;;5063187;28;20465;-64
2022/11/21 03:19:07;;;;;;;26.80;14.93;;;4.00;99.90;;;;;;5046554;28;20481;-65
2022/11/21 03:21:38;;;;;;;24.57;15.40;;;4.10;99.90;;;;;;5043704;28;20465;-64
2022/11/21 03:24:06;;;;;;;23.50;14.17;;;4.10;99.90;;;;;;5042866;28;20476;-64
2022/11/21 03:26:33;;;;;;;25.37;15.80;;;4.10;99.90;;;;;;5043312;28;20584;-64
2022/11/21 03:29:01;;;;;;;31.50;17.73;;;4.20;99.90;;;;;;5053893;28;20988;-64
2022/11/21 03:31:29;;;;;;;28.60;15.90;;;4.20;99.90;;;;;;5063526;28;20797;-64
2022/11/21 03:33:56;;;;;;;27.57;15.67;;;4.20;99.90;;;;;;5060900;28;20443;-64
2022/11/21 03:36:24;;;;;;;25.67;14.50;;;4.20;99.90;;;;;;5062922;28;20490;-64
2022/11/21 03:38:51;;;;;;;25.83;14.60;;;4.10;99.90;;;;;;5059628;28;20477;-64
2022/11/21 03:41:30;;;;;;;24.33;15.97;;;4.00;99.90;;;;;;5057366;28;20432;-64
2022/11/21 03:44:00;;;;;;;20.33;13.53;;;3.90;99.90;;;;;;5059337;28;20468;-64
2022/11/21 03:46:30;;;;;;;22.43;14.07;;;3.80;99.90;;;;;;5059367;28;20437;-64
2022/11/21 03:48:57;;;;;;;20.73;12.87;;;3.70;99.90;;;;;;5056236;28;20482;-64
2022/11/21 03:51:27;;;;;;;19.80;13.83;;;3.70;99.90;;;;;;5040023;28;20480;-64
2022/11/21 03:53:57;;;;;;;23.10;14.20;;;3.70;99.90;;;;;;5058815;28;20458;-64
2022/11/21 03:56:25;;;;;;;23.50;13.37;;;3.70;99.90;;;;;;5059742;28;20484;-64
2022/11/21 03:58:52;;;;;;;19.13;11.57;;;3.70;99.90;;;;;;5059565;28;20806;-64
2022/11/21 04:01:20;;;;;;;18.63;11.93;;;3.60;99.90;;;;;;5058856;28;20493;-64
2022/11/21 04:03:49;;;;;;;18.20;12.17;;;3.70;99.90;;;;;;5058617;28;20939;-64
2022/11/21 04:06:18;;;;;;;16.80;13.10;;;3.70;99.90;;;;;;5058768;28;20437;-64
2022/11/21 04:08:45;;;;;;;17.47;11.63;;;3.60;99.90;;;;;;5059344;28;20567;-64
2022/11/21 04:11:12;;;;;;;15.70;10.73;;;3.60;99.90;;;;;;5044166;28;20464;-64
2022/11/21 04:13:40;;;;;;;17.80;12.40;;;3.50;99.90;;;;;;5039290;28;20703;-64
2022/11/21 04:16:07;;;;;;;17.00;11.43;;;3.60;99.90;;;;;;5047708;28;20532;-64
2022/11/21 04:18:35;;;;;;;15.90;11.33;;;3.60;99.90;;;;;;5038972;28;20551;-64
2022/11/21 04:21:05;;;;;;;18.37;11.90;;;3.60;99.90;;;;;;5039319;28;20463;-64
2022/11/21 04:23:33;;;;;;;18.07;11.73;;;3.50;99.90;;;;;;5040500;28;20463;-64
2022/11/21 04:26:01;;;;;;;15.20;11.30;;;3.50;99.90;;;;;;5038793;28;20467;-64
2022/11/21 04:28:28;;;;;;;16.90;13.30;;;3.60;99.90;;;;;;5039003;28;20525;-64
2022/11/21 04:30:55;;;;;;;21.77;13.67;;;3.60;99.90;;;;;;5043257;28;20466;-64
2022/11/21 04:33:23;;;;;;;22.80;14.37;;;3.70;99.90;;;;;;5058954;28;20565;-64
2022/11/21 04:35:50;;;;;;;21.87;13.23;;;3.80;99.90;;;;;;5056933;28;20474;-64
2022/11/21 04:38:18;;;;;;;23.90;15.03;;;3.80;99.90;;;;;;5058555;28;20437;-64
2022/11/21 04:40:47;;;;;;;24.00;14.97;;;3.80;99.90;;;;;;5058797;28;20501;-64
2022/11/21 04:43:14;;;;;;;22.23;15.27;;;3.90;99.90;;;;;;5039117;28;20437;-63
2022/11/21 04:45:43;;;;;;;25.20;15.93;;;3.90;99.90;;;;;;5052349;28;20565;-63
2022/11/21 04:48:12;;;;;;;23.17;16.03;;;3.90;99.90;;;;;;5058101;28;20506;-64
2022/11/21 04:50:39;;;;;;;21.93;16.07;;;3.90;99.90;;;;;;5056185;28;20465;-64
2022/11/21 04:53:09;;;;;;;27.57;17.83;;;3.90;99.90;;;;;;5057639;28;20469;-63
2022/11/21 04:55:37;;;;;;;25.90;16.43;;;3.90;99.90;;;;;;5056894;28;20776;-63
2022/11/21 04:58:05;;;;;;;25.87;15.90;;;3.80;99.90;;;;;;5058257;28;20469;-63
2022/11/21 05:00:35;;;;;;;23.27;15.07;;;3.80;99.90;;;;;;5044162;28;20554;-63
2022/11/21 05:03:04;;;;;;;19.60;13.10;;;3.90;99.90;;;;;;5038150;28;20508;-64
2022/11/21 05:05:31;;;;;;;22.10;13.87;;;3.90;99.90;;;;;;5042352;28;20887;-63
2022/11/21 05:08:01;;;;;;;20.87;14.90;;;3.70;99.90;;;;;;5058108;28;20746;-63
2022/11/21 05:10:28;;;;;;;18.90;12.87;;;3.80;99.90;;;;;;5054830;28;20544;-64
2022/11/21 05:15:46;;;;;;;18.50;13.13;;;3.80;99.90;;;;;;5044697;28;20528;-63
2022/11/21 05:18:13;;;;;;;23.80;14.67;;;3.80;99.90;;;;;;5037806;28;20467;-64
2022/11/21 05:20:41;;;;;;;21.97;12.90;;;3.80;99.90;;;;;;5040056;28;20503;-63
2022/11/21 05:23:08;;;;;;;24.33;14.53;;;3.80;99.90;;;;;;5058244;28;20463;-63
2022/11/21 05:25:35;;;;;;;23.40;15.67;;;3.80;99.90;;;;;;5057701;28;20468;-63
2022/11/21 05:28:04;;;;;;;23.20;14.13;;;3.90;99.90;;;;;;5058077;28;20462;-63
2022/11/21 05:30:32;;;;;;;24.37;15.87;;;3.80;99.90;;;;;;5057852;28;20827;-63
2022/11/21 05:33:02;;;;;;;23.50;16.30;;;3.80;99.90;;;;;;5039546;28;20487;-63
2022/11/21 05:35:29;;;;;;;25.10;16.93;;;3.90;99.90;;;;;;5037848;28;20967;-63
2022/11/21 05:37:58;;;;;;;24.63;16.80;;;3.80;99.90;;;;;;5037711;28;20473;-63
2022/11/21 05:40:26;;;;;;;24.47;16.97;;;3.80;99.90;;;;;;5037471;28;20459;-63
2022/11/21 05:45:40;;;;;;;25.80;15.93;;;3.90;99.90;;;;;;5055365;28;20424;-63
2022/11/21 05:48:08;;;;;;;25.67;17.33;;;3.90;99.90;;;;;;5056716;28;20458;-63
2022/11/21 05:50:36;;;;;;;29.27;17.70;;;3.80;99.90;;;;;;5057305;28;20494;-63
2022/11/21 05:53:04;;;;;;;23.97;15.80;;;3.80;99.90;;;;;;5055641;28;20904;-63
2022/11/21 05:55:34;;;;;;;25.17;17.17;;;3.80;99.90;;;;;;5057519;28;20466;-63
2022/11/21 05:58:02;;;;;;;31.40;18.80;;;3.80;99.90;;;;;;5055692;28;20556;-63
2022/11/21 06:00:33;;;;;;;30.27;18.93;;;3.80;99.90;;;;;;5057338;28;20468;-63
2022/11/21 06:05:46;;;;;;;28.80;19.33;;;3.80;99.90;;;;;;5055054;28;20454;-63
2022/11/21 06:08:16;;;;;;;30.97;18.07;;;3.80;99.90;;;;;;5057002;28;20491;-63
2022/11/21 06:10:44;;;;;;;31.90;19.03;;;3.80;99.90;;;;;;5057083;28;20585;-63
2022/11/21 06:13:22;;;;;;;26.93;18.43;;;3.80;99.90;;;;;;5052183;28;20460;-63
2022/11/21 06:15:52;;;;;;;36.57;20.30;;;3.80;99.90;;;;;;5037769;28;20441;-63
2022/11/21 06:18:23;;;;;;;29.20;17.90;;;3.90;99.90;;;;;;5036949;28;20758;-63
2022/11/21 06:20:51;;;;;;;36.17;22.17;;;3.90;99.90;;;;;;5036843;28;20442;-63
2022/11/21 06:23:19;;;;;;;31.77;20.23;;;3.90;99.90;;;;;;5037701;28;20804;-63
2022/11/21 06:25:57;;;;;;;30.97;19.60;;;4.00;99.90;;;;;;5055562;28;20556;-63
2022/11/21 06:28:26;;;;;;;35.70;19.70;;;4.00;99.90;;;;;;5054429;28;20915;-63
2022/11/21 06:30:53;;;;;;;29.07;18.47;;;4.00;99.90;;;;;;5055565;28;20787;-63
2022/11/21 06:33:22;;;;;;;33.73;20.17;;;4.00;99.90;;;;;;5057015;28;20475;-63
2022/11/21 06:35:49;;;;;;;28.67;18.17;;;4.00;99.90;;;;;;5070203;28;20535;-62
2022/11/21 06:38:18;;;;;;;33.10;20.17;;;4.00;99.90;;;;;;5035103;28;20446;-62
2022/11/21 06:40:46;;;;;;;32.93;22.80;;;4.10;99.90;;;;;;5036961;28;20444;-62
2022/11/21 06:43:14;;;;;;;35.57;21.57;;;4.10;99.90;;;;;;5037122;28;20442;-62
2022/11/21 06:45:43;;;;;;;30.90;20.73;;;4.20;99.90;;;;;;5049126;28;20518;-62
2022/11/21 06:48:10;;;;;;;33.03;19.73;;;4.20;99.90;;;;;;5057167;28;20878;-62
2022/11/21 06:50:39;;;;;;;34.43;19.43;;;4.20;99.90;;;;;;5054482;28;20493;-62
2022/11/21 06:53:07;;;;;;;45.43;21.60;;;4.20;99.90;;;;;;5057088;28;20535;-62
2022/11/21 06:55:34;;;;;;;31.80;19.70;;;4.20;99.90;;;;;;5047789;28;20474;-62
2022/11/21 06:58:05;;;;;;;31.90;20.80;;;4.20;99.90;;;;;;5036593;28;20462;-61
2022/11/21 07:00:35;;;;;;;31.80;19.80;;;4.20;99.90;;;;;;5037947;28;20798;-62
2022/11/21 07:03:06;;;;;;;34.43;20.33;;;4.30;99.90;;;;;;5036787;28;20560;-62
2022/11/21 07:05:35;;;;;;;34.30;21.00;;;4.20;99.90;;;;;;5041572;28;20468;-63
2022/11/21 07:08:07;;;;;;;35.07;20.77;;;4.20;99.90;;;;;;5055937;28;20466;-62
2022/11/21 07:10:34;;;;;;;35.77;20.03;;;4.20;99.90;;;;;;5056723;28;20938;-62
2022/11/21 07:15:47;;;;;;;37.57;20.80;;;4.30;99.90;;;;;;5056458;28;20898;-62
2022/11/21 07:18:15;;;;;;;38.53;21.50;;;4.30;99.90;;;;;;5040545;28;20963;-61
2022/11/21 07:20:42;;;;;;;37.57;23.90;;;4.30;99.90;;;;;;5040682;28;20458;-62
2022/11/21 07:23:11;;;;;;;36.53;22.37;;;4.30;99.90;;;;;;5040487;28;20442;-62
2022/11/21 07:25:40;;;;;;;42.40;23.50;;;4.30;99.90;;;;;;5039865;28;20541;-63
2022/11/21 07:28:10;;;;;;;41.00;23.07;;;4.40;99.90;;;;;;5056241;28;20492;-62
2022/11/21 07:30:38;;;;;;;48.50;23.20;;;4.40;99.90;;;;;;5039738;28;21021;-63
2022/11/21 07:33:08;;;;;;;41.47;22.80;;;4.40;99.90;;;;;;5039115;28;20545;-63
2022/11/21 07:35:36;;;;;;;47.30;23.50;;;4.50;99.90;;;;;;5038550;28;20470;-62
2022/11/21 07:38:04;;;;;;;55.57;26.73;;;4.50;99.90;;;;;;5053401;28;20429;-63
2022/11/21 07:40:33;;;;;;;51.40;26.20;;;4.50;99.90;;;;;;5058504;28;20463;-62
2022/11/21 07:43:04;;;;;;;56.43;26.10;;;4.60;99.90;;;;;;5060266;28;20463;-63
2022/11/21 07:45:32;;;;;;;42.70;24.23;;;4.60;99.90;;;;;;5060358;28;20494;-63
2022/11/21 07:47:59;;;;;;;56.23;27.10;;;4.60;99.90;;;;;;5049504;28;20445;-63
2022/11/21 07:50:28;;;;;;;49.10;24.27;;;4.60;99.90;;;;;;5055597;28;20464;-62
2022/11/21 07:53:01;;;;;;;62.83;28.80;;;4.60;99.90;;;;;;5042403;28;20437;-63
2022/11/21 07:55:31;;;;;;;47.47;27.73;;;4.70;99.90;;;;;;5038410;28;20557;-63
2022/11/21 07:58:01;;;;;;;58.63;29.37;;;4.70;99.90;;;;;;5043633;28;20743;-63
2022/11/21 08:00:31;;;;;;;65.47;27.87;;;4.70;99.90;;;;;;5057053;28;20459;-63
2022/11/21 08:02:58;;;;;;;61.43;30.87;;;4.80;99.90;;;;;;5058145;28;20580;-63
2022/11/21 08:05:29;;;;;;;57.60;27.60;;;4.80;99.90;;;;;;5054461;28;20770;-63
2022/11/21 08:08:00;;;;;;;59.20;28.07;;;4.90;99.90;;;;;;5038333;28;20893;-64
2022/11/21 08:10:27;;;;;;;71.20;32.47;;;4.80;99.90;;;;;;5038553;28;20491;-64
2022/11/21 08:12:55;;;;;;;73.63;33.17;;;4.90;99.90;;;;;;5038803;28;20581;-64
2022/11/21 08:15:25;;;;;;;60.47;29.37;;;4.90;99.90;;;;;;5038258;28;20459;-63
2022/11/21 08:17:52;;;;;;;50.77;26.10;;;4.90;99.90;;;;;;5039055;28;20467;-63
2022/11/21 08:20:20;;;;;;;49.27;26.30;;;5.00;99.90;;;;;;5040086;28;20456;-64
2022/11/21 08:22:47;;;;;;;47.63;24.67;;;5.00;99.90;;;;;;5039312;28;20880;-64
2022/11/21 08:25:17;;;;;;;45.83;25.83;;;5.10;99.90;;;;;;5037787;28;20517;-64
2022/11/21 08:27:45;;;;;;;43.17;23.43;;;5.10;99.90;;;;;;5052433;28;20462;-64
2022/11/21 08:30:13;;;;;;;45.40;23.80;;;5.10;99.90;;;;;;5057271;28;20948;-64
2022/11/21 08:32:42;;;;;;;43.73;26.60;;;5.20;99.90;;;;;;5057789;28;20437;-64
2022/11/21 08:35:09;;;;;;;44.13;23.47;;;5.20;99.90;;;;;;5057621;28;20925;-64
2022/11/21 08:37:37;;;;;;;48.40;26.50;;;5.30;99.90;;;;;;5056115;28;20437;-63
2022/11/21 08:40:06;;;;;;;48.40;26.20;;;5.30;99.90;;;;;;5056958;28;20493;-63
2022/11/21 08:42:34;;;;;;;44.87;23.87;;;5.40;99.90;;;;;;5041810;28;20471;-64
2022/11/21 08:45:05;;;;;;;39.97;23.97;;;5.40;99.90;;;;;;5036987;28;20708;-64
2022/11/21 08:47:35;;;;;;;39.77;25.60;;;5.40;99.90;;;;;;5040648;28;20974;-64
2022/11/21 08:50:05;;;;;;;34.70;21.53;;;5.50;99.90;;;;;;5054964;28;20909;-64
2022/11/21 08:52:32;;;;;;;41.70;23.70;;;5.50;99.90;;;;;;5057548;28;20432;-63
2022/11/21 08:55:03;;;;;;;36.20;21.03;;;5.60;99.90;;;;;;5057095;28;20808;-64
2022/11/21 08:57:30;;;;;;;38.17;24.50;;;5.60;99.90;;;;;;5056185;28;20561;-64
2022/11/21 08:59:58;;;;;;;40.93;25.83;;;5.60;99.90;;;;;;5036450;28;20774;-64
2022/11/21 09:02:27;;;;;;;39.87;22.60;;;5.60;99.90;;;;;;5037033;28;20544;-63
2022/11/21 09:04:55;;;;;;;41.00;22.83;;;5.70;99.90;;;;;;5037807;28;20865;-64
2022/11/21 09:07:24;;;;;;;48.00;24.93;;;5.70;99.90;;;;;;5038037;28;20463;-65
2022/11/21 09:09:55;;;;;;;40.27;22.57;;;5.70;99.90;;;;;;5053878;28;20498;-64
2022/11/21 09:12:23;;;;;;;33.87;23.70;;;5.70;99.90;;;;;;5057744;28;20467;-64
2022/11/21 09:20:25;;;;;;;37.07;22.10;;;5.70;99.90;;;;;;5039768;28;20474;-64
2022/11/21 09:22:54;;;;;;;27.87;21.00;;;5.70;99.90;;;;;;5057049;28;20528;-64
2022/11/21 09:25:21;;;;;;;34.93;21.40;;;5.80;99.90;;;;;;5058175;28;20462;-64
2022/11/21 09:27:48;;;;;;;41.10;23.50;;;5.80;99.90;;;;;;5057421;28;20472;-63
2022/11/21 09:30:15;;;;;;;29.63;19.50;;;5.80;99.90;;;;;;5044177;28;20804;-64
2022/11/21 09:32:45;;;;;;;23.63;16.87;;;5.90;99.90;;;;;;5037841;28;20845;-64
2022/11/21 09:35:15;;;;;;;25.17;18.00;;;5.80;99.90;;;;;;5038862;28;20471;-65
2022/11/21 09:37:45;;;;;;;22.87;15.30;;;5.90;99.90;;;;;;5036261;28;20498;-64
2022/11/21 09:40:18;;;;;;;19.60;14.50;;;6.00;99.90;;;;;;5049920;28;20429;-66
2022/11/21 09:43:13;;;;;;;22.00;15.40;;;6.10;99.90;;;;;;5064493;28;20536;-67
2022/11/21 09:45:46;;;;;;;21.27;14.97;;;6.20;99.90;;;;;;5064188;28;20478;-66
2022/11/21 09:48:19;;;;;;;21.70;15.13;;;6.30;99.90;;;;;;5068491;28;20509;-65
2022/11/21 09:50:54;;;;;;;21.90;14.93;;;6.30;99.90;;;;;;5065801;28;20490;-65
2022/11/21 09:53:27;;;;;;;20.60;17.07;;;6.50;99.90;;;;;;5055689;28;20899;-65
2022/11/21 09:55:59;;;;;;;24.17;15.27;;;6.50;99.90;;;;;;5057435;28;20887;-64
2022/11/21 09:58:32;;;;;;;20.40;15.67;;;6.40;99.90;;;;;;5057473;28;20462;-65
2022/11/21 10:01:04;;;;;;;17.83;15.73;;;6.50;99.90;;;;;;5049317;28;20542;-64
2022/11/21 10:03:42;;;;;;;25.00;17.77;;;6.50;99.90;;;;;;5037314;28;20483;-65
2022/11/21 10:06:17;;;;;;;24.07;16.47;;;6.60;99.90;;;;;;5038662;28;20762;-64
2022/11/21 10:08:55;;;;;;;21.87;16.67;;;6.60;99.90;;;;;;5037669;28;20862;-65
2022/11/21 10:12:35;;;;;;;19.23;14.80;;;6.70;99.90;;;;;;5044267;28;20934;-65
2022/11/21 10:14:50;;;;;;;28.67;16.47;;;6.70;99.90;;;;;;5055356;28;20805;-64
2022/11/21 10:17:26;;;;;;;21.27;16.43;;;6.60;99.90;;;;;;5055984;28;20495;-65
2022/11/21 10:20:25;;;;;;;22.30;16.03;;;6.60;99.90;;;;;;5056838;28;20535;-64
2022/11/21 10:23:19;;;;;;;20.93;16.00;;;6.70;99.90;;;;;;5056172;28;20557;-64
2022/11/21 10:25:55;;;;;;;18.90;16.37;;;6.70;99.90;;;;;;5056270;28;20465;-64
2022/11/21 10:28:30;;;;;;;24.90;17.53;;;6.70;99.90;;;;;;5057346;28;20807;-64
2022/11/21 10:31:00;;;;;;;21.53;17.27;;;6.80;99.90;;;;;;5057041;28;20523;-64
2022/11/21 10:33:33;;;;;;;21.90;16.33;;;6.70;99.90;;;;;;5039263;28;20438;-64
2022/11/21 10:36:09;;;;;;;22.67;17.30;;;6.80;99.90;;;;;;5037140;28;20470;-64
2022/11/21 10:38:40;;;;;;;26.00;18.00;;;6.90;99.90;;;;;;5036859;28;20469;-64
2022/11/21 10:41:14;;;;;;;22.90;17.07;;;6.90;99.90;;;;;;5037141;28;20466;-63
2022/11/21 10:46:32;;;;;;;20.60;15.37;;;7.40;99.90;;;;;;5055406;28;20445;-63
2022/11/21 10:49:01;;;;;;;21.90;15.40;;;7.30;99.90;;;;;;5058085;28;20469;-63
2022/11/21 10:51:42;;;;;;;20.33;15.80;;;7.30;99.90;;;;;;5059779;28;20787;-63
2022/11/21 10:57:01;;;;;;;18.20;16.20;;;7.10;99.90;;;;;;5040938;28;20413;-63
2022/11/21 10:59:30;;;;;;;18.53;15.80;;;7.00;99.90;;;;;;5041365;28;20469;-63
2022/11/21 11:01:59;;;;;;;20.90;16.23;;;7.00;99.90;;;;;;5040415;28;20459;-63
2022/11/21 11:04:28;;;;;;;19.90;15.60;;;7.10;99.90;;;;;;5052409;28;20512;-64
2022/11/21 11:06:56;;;;;;;20.10;15.10;;;7.40;99.90;;;;;;5060717;28;20754;-63
2022/11/21 11:09:29;;;;;;;16.53;14.10;;;7.80;99.90;;;;;;5058796;28;20951;-63
2022/11/21 11:15:20;;;;;;;13.70;12.30;;;7.80;99.90;;;;;;5044713;28;20447;-63
2022/11/21 11:17:53;;;;;;;16.57;12.97;;;7.90;99.90;;;;;;5041564;28;20433;-63
2022/11/21 11:20:33;;;;;;;14.20;12.33;;;8.00;99.90;;;;;;5040476;28;20469;-63
2022/11/21 11:23:03;;;;;;;15.40;11.63;;;8.00;99.90;;;;;;5040512;28;20433;-63
2022/11/21 11:25:35;;;;;;;14.97;11.90;;;8.00;99.90;;;;;;5053377;28;20545;-63
2022/11/21 11:28:07;;;;;;;17.93;13.17;;;7.80;99.90;;;;;;5060155;28;20459;-63
2022/11/21 11:30:40;;;;;;;15.30;12.90;;;7.80;99.90;;;;;;5059087;28;20472;-63
2022/11/21 11:33:32;;;;;;;12.87;11.30;;;7.80;99.90;;;;;;5060234;28;20466;-63
2022/11/21 11:36:11;;;;;;;14.03;11.20;;;7.70;99.90;;;;;;5044419;28;20463;-63
2022/11/21 11:38:39;;;;;;;15.93;11.47;;;7.60;99.90;;;;;;5041198;28;20892;-63
2022/11/21 11:41:21;;;;;;;13.27;11.70;;;7.40;99.90;;;;;;5039647;28;20433;-63
2022/11/21 11:52:40;;;;;;;14.90;11.83;;;7.50;99.90;;;;;;5057936;28;20581;-63
2022/11/21 11:55:18;;;;;;;14.20;10.53;;;7.50;99.90;;;;;;5059157;28;20461;-63
2022/11/21 11:57:47;;;;;;;17.57;13.60;;;7.50;99.90;;;;;;5039341;28;20467;-63
2022/11/21 12:00:32;;;;;;;15.17;10.83;;;7.50;99.90;;;;;;5038381;28;20467;-63
2022/11/21 12:03:11;;;;;;;14.83;12.93;;;7.50;99.90;;;;;;5039338;28;20974;-63
2022/11/21 12:05:50;;;;;;;17.97;11.93;;;7.70;99.90;;;;;;5039009;28;20774;-63
2022/11/21 12:08:24;;;;;;;13.33;10.83;;;7.90;99.90;;;;;;5054339;28;20467;-63
2022/11/21 12:13:48;;;;;;;14.10;12.20;;;8.40;99.90;;;;;;5051236;28;20877;-64
2022/11/21 12:16:17;;;;;;;15.53;11.83;;;8.40;99.90;;;;;;5057567;28;20884;-64
2022/11/21 12:18:52;;;;;;;12.80;10.80;;;8.40;99.90;;;;;;5055681;28;20462;-64
2022/11/21 12:21:22;;;;;;;20.80;12.60;;;8.50;99.90;;;;;;5049261;28;20486;-64
2022/11/21 12:23:51;;;;;;;14.80;11.80;;;8.30;99.90;;;;;;5047350;28;20473;-64
2022/11/21 12:26:34;;;;;;;16.67;12.40;;;8.30;99.90;;;;;;5056752;28;20467;-64
2022/11/21 12:29:37;;;;;;;14.03;11.60;;;8.30;99.90;;;;;;5055385;28;20458;-64
2022/11/21 12:32:24;;;;;;;12.60;11.37;;;8.40;99.90;;;;;;5042262;28;20806;-63
2022/11/21 12:35:18;;;;;;;14.10;10.17;;;8.50;99.90;;;;;;5051412;28;20766;-64
2022/11/21 12:37:57;;;;;;;11.93;10.73;;;8.70;99.90;;;;;;5054826;28;20883;-64
2022/11/21 12:40:42;;;;;;;9.77;8.60;;;9.00;99.90;;;;;;5055183;28;20464;-64
2022/11/21 12:43:19;;;;;;;14.40;9.20;;;9.30;99.90;;;;;;5048855;28;20860;-64
2022/11/21 12:45:52;;;;;;;10.00;8.27;;;9.30;99.90;;;;;;5038741;28;20538;-65
2022/11/21 12:55:11;;;;;;;9.33;7.10;;;9.30;99.90;;;;;;5054328;28;20470;-65
2022/11/21 12:58:08;;;;;;;7.80;6.23;;;9.20;99.90;;;;;;5008210;28;20466;-64
2022/11/21 13:00:53;;;;;;;7.93;7.10;;;8.90;33.60;;;;;;5031422;28;20474;-65
2022/11/21 13:03:39;;;;;;;12.40;6.87;;;8.70;35.00;;;;;;5048668;28;20493;-65
2022/11/21 13:06:14;;;;;;;8.03;7.13;;;8.50;60.40;;;;;;5049945;28;20462;-65
2022/11/21 13:08:47;;;;;;;8.80;7.90;;;8.20;99.10;;;;;;5043762;28;20545;-65
2022/11/21 13:14:21;;;;;;;10.20;6.60;;;8.40;99.90;;;;;;5037852;28;20438;-65
2022/11/21 13:16:54;;;;;;;8.90;6.53;;;8.40;99.90;;;;;;5055361;28;20455;-65
2022/11/21 13:19:30;;;;;;;8.60;7.37;;;8.50;99.90;;;;;;5057067;28;20483;-65
2022/11/21 13:21:57;;;;;;;14.47;8.57;;;8.50;99.90;;;;;;5055841;28;20441;-65
2022/11/21 13:24:57;;;;;;;6.27;5.67;;;8.50;99.90;;;;;;5056272;28;20778;-65
2022/11/21 13:27:29;;;;;;;10.20;6.73;;;8.40;99.90;;;;;;5050843;28;20521;-65
2022/11/21 13:30:27;;;;;;;6.50;5.90;;;8.20;99.90;;;;;;5049918;28;20468;-65
2022/11/21 13:32:58;;;;;;;7.23;5.33;;;8.20;99.90;;;;;;5036137;28;20501;-65
2022/11/21 13:36:00;;;;;;;5.57;4.97;;;8.00;99.90;;;;;;5037265;28;20471;-66
2022/11/21 13:38:30;;;;;;;5.90;4.73;;;7.90;99.90;;;;;;5003926;28;20833;-65
2022/11/21 13:43:50;;;;;;;8.10;5.40;;;7.90;99.90;;;;;;5042402;28;20458;-65
2022/11/21 13:46:50;;;;;;;8.20;5.37;;;7.80;99.90;;;;;;5055305;28;20480;-65
2022/11/21 13:49:28;;;;;;;17.50;11.40;;;7.80;1.00;;;;;;5054044;28;20946;-65